Sunday, December 17, 2017, 2:32 PM EST
Back to Local

KTAN, Taunton Municipal Airport

Location: East Taunton, MA, United States Lat: 41.883
Local Time: 2:32 PM EST (19:32 GMT) Lon: -71.017
Time Zone: US/Eastern Elev: 42 ft

Show me the last for .
Show Decoded

2017-12-17 13:52 METAR KTAN 171852Z AUTO 26005KT 10SM CLR M01/M16 A3021 RMK AO2 SLP230 T10111156
                 =
2017-12-17 12:52 METAR KTAN 171752Z AUTO 32003KT 10SM CLR M02/M16 A3022 RMK AO2 SLP234 T10171161
                 11011 21150 58015 =
2017-12-17 11:52 METAR KTAN 171652Z AUTO 29007KT 260V330 10SM CLR M02/M16 A3025 RMK AO2 SLP244
                 T10221156 =
2017-12-17 10:52 METAR KTAN 171552Z AUTO 32006KT 10SM CLR M03/M16 A3026 RMK AO2 SLP246 T10281156
                 =
2017-12-17 09:52 METAR KTAN 171452Z AUTO VRB06KT 10SM CLR M04/M13 A3027 RMK AO2 SLP249 T10441133
                 50003 =
2017-12-17 08:52 METAR KTAN 171352Z AUTO 00000KT 10SM CLR M08/M10 A3027 RMK AO2 SLP251 T10831100
                 =
2017-12-17 07:52 METAR KTAN 171252Z AUTO 00000KT 10SM CLR M13/M14 A3026 RMK AO2 SLP248 T11331144
                 =
2017-12-17 06:52 METAR KTAN 171152Z AUTO 00000KT 10SM CLR M15/M17 A3026 RMK AO2 SLP245 I6001
                 T11501167 11106 21150 50014 =
2017-12-17 05:52 METAR KTAN 171052Z AUTO 00000KT 10SM CLR M14/M16 A3027 RMK AO2 SLP249 T11391161
                 =
2017-12-17 04:52 METAR KTAN 170952Z AUTO 00000KT 10SM CLR M14/M16 A3023 RMK AO2 SLP237 T11441161
                 =
2017-12-17 03:52 METAR KTAN 170852Z AUTO 27004KT 9SM CLR M14/M16 A3022 RMK AO2 SLP232 I1000 I3001
                 T11391156 51013 =
2017-12-17 02:52 METAR KTAN 170752Z AUTO 00000KT 9SM CLR M13/M14 A3022 RMK AO2 SLP232 T11281144 =
2017-12-17 01:52 METAR KTAN 170652Z AUTO 00000KT 9SM CLR M12/M14 A3020 RMK AO2 SLP227 I1001
                 T11221139 =
2017-12-17 00:52 METAR KTAN 170552Z AUTO 00000KT 10SM CLR M11/M13 A3018 RMK AO2 SLP219 I1000
                 I6000 T11111128 11017 21111 51015 =
2017-12-16 23:52 METAR KTAN 170452Z AUTO 00000KT 10SM CLR M09/M11 A3017 RMK AO2 SLP216 T10891106
                 400061094 =
2017-12-16 22:52 METAR KTAN 170352Z AUTO 29003KT 10SM CLR M04/M09 A3016 RMK AO2 SLP212 T10441089
                 =
2017-12-16 21:52 METAR KTAN 170252Z AUTO 29004KT 10SM CLR M03/M09 A3013 RMK AO2 SLP204 T10331089
                 51027 =
2017-12-16 20:52 METAR KTAN 170152Z AUTO 31005KT 10SM CLR M02/M09 A3012 RMK AO2 SLP199 T10221089
                 =
2017-12-16 19:52 METAR KTAN 170052Z AUTO 29004KT 10SM CLR M02/M08 A3008 RMK AO2 SLP186 T10221078
                 =
2017-12-16 18:52 METAR KTAN 162352Z AUTO 28005KT 10SM BKN080 M02/M07 A3005 RMK AO2 SLP177
                 T10171072 10006 21033 53037 =
2017-12-16 17:52 METAR KTAN 162252Z AUTO 29006KT 10SM OVC085 M01/M08 A3002 RMK AO2 SLP165
                 T10111078 =
2017-12-16 16:52 METAR KTAN 162152Z AUTO 00000KT 10SM OVC110 M02/M08 A2998 RMK AO2 SLP152
                 T10171078 =
2017-12-16 15:52 METAR KTAN 162052Z AUTO 00000KT 10SM FEW050 BKN110 M01/M08 A2995 RMK AO2 SLP140
                 T10061083 53012 =
2017-12-16 14:52 METAR KTAN 161952Z AUTO 25006KT 10SM SCT100 00/M09 A2993 RMK AO2 SLP136
                 T00001089 =

Support USWX by starting your Amazon purchase here.